Startpagina
METAR-TAF:

METAR-TAF

Vliegvelden :

Aéroport de Tarbes-Lourdes-Pyrénées

Tarbes Lourdes, Frankrijk

breedte: 43-11N, lengte: 000-00W, hoogte: 379 m

Actueel weer

Dit bericht is 29 minuten geleden gemaakt, om 03:30 UTC
Wind 6 kt uit het zuidzuidwesten
Temperatuur 17°C
Vochtigheid 94%
Druk 1016 hPa
Zicht: 6000 m
Geheel bewolkt op 500 ft

METAR: LFBT 020330Z AUTO 21006KT 6000 OVC005 17/16 Q1016

Tijdstip: 05:59 (03:59 UTC)


TAF: ontbreekt

Waarnemingen en weersverwachtingen van meer dan 4000 vliegvelden (METAR en TAF).

De beschikbare stations zijn de gele en rode punten op de kaart.

Ga met uw muis naar het station om de naam te zien.

Klik dan om waarnemingen en weersverwachtingen te zien.

kaart wijzigen: klik op de groene knoppen met een zwart kruis om in te zoomen, op de groene knop met een streepje om uit te zoomen of op de groene pijlen voor aangrenzende kaarten.


METAR-TAF: